createdAt,value
2022-11-19T00:00:12.953Z,8.80
2022-11-19T00:02:48.174Z,8.80
2022-11-19T00:05:18.347Z,8.80
2022-11-19T00:07:53.382Z,8.70
2022-11-19T00:10:21.661Z,8.70
2022-11-19T00:13:01.058Z,8.70
2022-11-19T00:15:29.303Z,8.70
2022-11-19T00:18:05.052Z,8.70
2022-11-19T00:20:35.725Z,8.80
2022-11-19T00:23:10.166Z,8.90
2022-11-19T00:25:38.770Z,8.80
2022-11-19T00:28:14.069Z,8.80
2022-11-19T00:30:47.988Z,8.70
2022-11-19T00:33:24.017Z,8.70
2022-11-19T00:35:57.101Z,8.70
2022-11-19T00:38:32.065Z,8.70
2022-11-19T00:41:00.614Z,8.80
2022-11-19T00:43:53.193Z,8.80
2022-11-19T00:46:23.438Z,8.80
2022-11-19T00:49:02.205Z,8.80
2022-11-19T00:51:32.384Z,8.80
2022-11-19T00:54:07.056Z,8.80
2022-11-19T00:56:41.952Z,8.80
2022-11-19T00:59:17.733Z,8.80
2022-11-19T01:01:46.142Z,8.80
2022-11-19T01:04:21.104Z,8.70
2022-11-19T01:06:50.966Z,8.70
2022-11-19T01:09:26.092Z,8.70
2022-11-19T01:11:54.596Z,8.70
2022-11-19T01:14:29.109Z,8.70
2022-11-19T01:16:57.710Z,8.70
2022-11-19T01:19:33.087Z,8.70
2022-11-19T01:22:02.955Z,8.70
2022-11-19T01:24:38.093Z,8.70
2022-11-19T01:27:06.412Z,8.70
2022-11-19T01:29:41.118Z,8.70
2022-11-19T01:32:09.508Z,8.70
2022-11-19T01:34:44.118Z,8.70
2022-11-19T01:37:14.240Z,8.60
2022-11-19T01:39:49.142Z,8.70
2022-11-19T01:42:47.083Z,8.60
2022-11-19T01:45:32.607Z,8.60
2022-11-19T01:48:11.152Z,8.60
2022-11-19T01:50:43.007Z,8.60
2022-11-19T01:53:20.100Z,8.60
2022-11-19T01:55:55.471Z,8.60
2022-11-19T01:58:33.277Z,8.50
2022-11-19T02:01:02.776Z,8.50
2022-11-19T02:03:40.452Z,8.50
2022-11-19T02:06:09.974Z,8.50
2022-11-19T02:08:52.083Z,8.50
2022-11-19T02:11:56.284Z,8.50
2022-11-19T02:14:53.544Z,8.50
2022-11-19T02:17:35.315Z,8.50
2022-11-19T02:20:42.219Z,8.50
2022-11-19T02:23:46.645Z,8.50
2022-11-19T02:26:41.193Z,8.50
2022-11-19T02:29:17.543Z,8.50
2022-11-19T02:32:00.118Z,8.40
2022-11-19T02:34:33.887Z,8.40
2022-11-19T02:37:15.301Z,8.40
2022-11-19T02:39:49.373Z,8.40
2022-11-19T02:42:30.154Z,8.40
2022-11-19T02:45:02.642Z,8.40
2022-11-19T02:47:43.183Z,8.40
2022-11-19T02:50:15.194Z,8.40
2022-11-19T02:52:52.233Z,8.40
2022-11-19T02:55:42.170Z,8.40
2022-11-19T02:58:41.320Z,8.40
2022-11-19T03:01:27.671Z,8.50
2022-11-19T03:04:22.112Z,8.50
2022-11-19T03:06:51.038Z,8.50
2022-11-19T03:09:27.171Z,8.50
2022-11-19T03:12:02.172Z,8.40
2022-11-19T03:15:04.331Z,8.40
2022-11-19T03:17:43.352Z,8.40
2022-11-19T03:20:29.361Z,8.40
2022-11-19T03:23:02.601Z,8.40
2022-11-19T03:25:43.126Z,8.40
2022-11-19T03:28:15.922Z,8.40
2022-11-19T03:30:53.444Z,8.40
2022-11-19T03:33:25.720Z,8.40
2022-11-19T03:36:07.203Z,8.40
2022-11-19T03:38:41.879Z,8.40
2022-11-19T03:41:19.162Z,8.30
2022-11-19T03:43:53.496Z,8.40
2022-11-19T03:46:32.239Z,8.40
2022-11-19T03:49:03.304Z,8.40
2022-11-19T03:51:46.208Z,8.40
2022-11-19T03:54:35.183Z,8.40
2022-11-19T03:57:12.243Z,8.40
2022-11-19T03:59:40.580Z,8.40
2022-11-19T04:02:17.405Z,8.40
2022-11-19T04:04:45.626Z,8.40
2022-11-19T04:07:24.301Z,8.40
2022-11-19T04:09:53.038Z,8.50
2022-11-19T04:12:30.195Z,8.50
2022-11-19T04:15:05.185Z,8.40
2022-11-19T04:17:33.407Z,8.40
2022-11-19T04:20:08.398Z,8.40
2022-11-19T04:22:38.028Z,8.30
2022-11-19T04:25:13.406Z,8.20
2022-11-19T04:27:41.954Z,8.00
2022-11-19T04:30:18.230Z,7.80
2022-11-19T04:32:46.731Z,7.70
2022-11-19T04:35:25.501Z,7.60
2022-11-19T04:37:55.120Z,7.50
2022-11-19T04:40:30.240Z,7.50
2022-11-19T04:42:58.586Z,7.40
2022-11-19T04:45:33.294Z,7.40
2022-11-19T04:48:01.695Z,7.30
2022-11-19T04:50:36.299Z,7.20
2022-11-19T04:53:06.040Z,7.10
2022-11-19T04:55:48.313Z,7.10
2022-11-19T04:58:23.543Z,7.00
2022-11-19T05:00:58.277Z,6.90
2022-11-19T05:03:26.953Z,6.90
2022-11-19T05:06:01.239Z,6.90
2022-11-19T05:08:30.850Z,6.80
2022-11-19T05:11:06.327Z,6.80
2022-11-19T05:13:34.775Z,6.70
2022-11-19T05:16:09.289Z,6.80
2022-11-19T05:18:37.483Z,6.70
2022-11-19T05:21:12.394Z,6.70
2022-11-19T05:23:42.277Z,6.70
2022-11-19T05:26:17.343Z,6.60
2022-11-19T05:28:46.085Z,6.50
2022-11-19T05:31:21.352Z,6.50
2022-11-19T05:33:49.794Z,6.40
2022-11-19T05:36:24.455Z,6.30
2022-11-19T05:38:54.123Z,6.20
2022-11-19T05:41:29.314Z,6.20
2022-11-19T05:43:58.820Z,6.20
2022-11-19T05:46:33.478Z,6.10
2022-11-19T05:49:02.027Z,6.00
2022-11-19T05:51:37.387Z,5.90
2022-11-19T05:54:27.340Z,5.90
2022-11-19T05:57:02.316Z,5.90
2022-11-19T05:59:30.794Z,5.90
2022-11-19T06:02:06.365Z,5.80
2022-11-19T06:04:34.922Z,5.70
2022-11-19T06:07:10.419Z,5.70
2022-11-19T06:09:40.563Z,5.70
2022-11-19T06:12:16.324Z,5.80
2022-11-19T06:14:44.631Z,5.70
2022-11-19T06:17:19.383Z,5.70
2022-11-19T06:19:47.979Z,5.60
2022-11-19T06:22:22.311Z,5.60
2022-11-19T06:24:52.274Z,5.50
2022-11-19T06:27:27.300Z,5.50
2022-11-19T06:29:56.815Z,5.50
2022-11-19T06:32:31.340Z,5.40
2022-11-19T06:34:59.843Z,5.30
2022-11-19T06:37:34.537Z,5.30
2022-11-19T06:40:05.092Z,5.30
2022-11-19T06:42:49.777Z,5.30
2022-11-19T06:45:19.384Z,5.30
2022-11-19T06:47:56.450Z,5.30
2022-11-19T06:50:24.852Z,5.30
2022-11-19T06:52:59.327Z,5.20
2022-11-19T06:55:49.496Z,5.20
2022-11-19T06:58:24.378Z,5.10
2022-11-19T07:00:52.805Z,5.00
2022-11-19T07:03:27.374Z,4.90
2022-11-19T07:05:59.382Z,4.80
2022-11-19T07:08:34.520Z,4.70
2022-11-19T07:11:32.407Z,4.70
2022-11-19T07:14:00.836Z,4.60
2022-11-19T07:16:37.428Z,4.50
2022-11-19T07:19:07.870Z,4.40
2022-11-19T07:21:43.605Z,4.50
2022-11-19T07:24:13.285Z,4.40
2022-11-19T07:26:49.391Z,4.30
2022-11-19T07:29:18.902Z,4.30
2022-11-19T07:31:57.438Z,4.30
2022-11-19T07:34:25.901Z,4.30
2022-11-19T07:37:00.560Z,4.20
2022-11-19T07:39:29.089Z,4.20
2022-11-19T07:42:22.601Z,4.20
2022-11-19T07:44:54.765Z,4.20
2022-11-19T07:47:30.410Z,4.10
2022-11-19T07:49:58.908Z,4.10
2022-11-19T07:52:33.448Z,4.00
2022-11-19T07:55:22.440Z,4.00
2022-11-19T07:58:01.387Z,3.90
2022-11-19T08:00:29.571Z,3.90
2022-11-19T08:03:04.570Z,3.90
2022-11-19T08:05:32.709Z,3.90
2022-11-19T08:08:07.669Z,3.90
2022-11-19T08:10:36.558Z,3.90
2022-11-19T08:13:13.477Z,3.80
2022-11-19T08:15:41.890Z,3.90
2022-11-19T08:18:25.056Z,3.90
2022-11-19T08:20:56.882Z,3.90
2022-11-19T08:23:32.458Z,3.90
2022-11-19T08:26:00.812Z,3.90
2022-11-19T08:28:38.409Z,3.80
2022-11-19T08:31:08.269Z,3.70
2022-11-19T08:33:43.511Z,3.70
2022-11-19T08:36:12.505Z,3.70
2022-11-19T08:38:47.468Z,3.80
2022-11-19T08:41:33.238Z,3.80
2022-11-19T08:44:09.442Z,3.80
2022-11-19T08:46:38.546Z,3.80
2022-11-19T08:49:13.478Z,3.70
2022-11-19T08:51:43.125Z,3.70
2022-11-19T08:54:19.830Z,3.80
2022-11-19T08:56:54.509Z,3.80
2022-11-19T08:59:30.649Z,3.80
2022-11-19T09:01:58.934Z,3.80
2022-11-19T09:04:33.652Z,3.80
2022-11-19T09:07:03.113Z,3.90
2022-11-19T09:09:38.715Z,3.90
2022-11-19T09:12:07.379Z,3.90
2022-11-19T09:14:43.512Z,3.90
2022-11-19T09:17:11.755Z,3.90
2022-11-19T09:19:46.510Z,3.90
2022-11-19T09:22:14.855Z,3.90
2022-11-19T09:24:49.506Z,3.90
2022-11-19T09:27:17.860Z,3.90
2022-11-19T09:29:54.465Z,3.90
2022-11-19T09:32:25.510Z,3.90
2022-11-19T09:35:00.463Z,4.00
2022-11-19T09:37:31.512Z,4.00
2022-11-19T09:40:06.511Z,4.00
2022-11-19T09:42:45.931Z,3.90
2022-11-19T09:45:29.671Z,3.90
2022-11-19T09:48:12.223Z,3.80
2022-11-19T09:50:58.553Z,3.80
2022-11-19T09:53:47.815Z,3.80
2022-11-19T09:56:34.690Z,3.90
2022-11-19T09:59:08.353Z,3.90
2022-11-19T10:01:45.738Z,3.80
2022-11-19T10:04:14.349Z,3.80
2022-11-19T10:06:57.642Z,3.70
2022-11-19T10:09:49.305Z,3.70
2022-11-19T10:12:40.525Z,3.70
2022-11-19T10:15:19.123Z,3.70
2022-11-19T10:18:05.518Z,3.80
2022-11-19T10:21:01.252Z,3.90
2022-11-19T10:23:45.554Z,3.90
2022-11-19T10:26:16.675Z,3.90
2022-11-19T10:29:00.521Z,3.90
2022-11-19T10:31:36.398Z,3.90
2022-11-19T10:34:22.553Z,3.90
2022-11-19T10:37:02.642Z,3.90
2022-11-19T10:39:37.790Z,3.90
2022-11-19T10:42:25.758Z,3.90
2022-11-19T10:44:57.887Z,3.90
2022-11-19T10:47:42.382Z,3.90
2022-11-19T10:50:17.702Z,3.90
2022-11-19T10:52:57.657Z,3.90
2022-11-19T10:55:36.959Z,3.80
2022-11-19T10:58:23.640Z,3.80
2022-11-19T11:00:55.696Z,3.80
2022-11-19T11:03:34.624Z,3.80
2022-11-19T11:06:09.965Z,3.70
2022-11-19T11:08:55.622Z,3.60
2022-11-19T11:11:48.278Z,3.70
2022-11-19T11:14:41.741Z,3.70
2022-11-19T11:17:20.861Z,3.70
2022-11-19T11:20:04.793Z,3.60
2022-11-19T11:22:35.924Z,3.60
2022-11-19T11:25:11.592Z,3.60
2022-11-19T11:27:40.042Z,3.70
2022-11-19T11:30:24.525Z,3.70
2022-11-19T11:32:52.687Z,3.70
2022-11-19T11:35:38.583Z,3.70
2022-11-19T11:38:10.225Z,3.60
2022-11-19T11:40:45.657Z,3.60
2022-11-19T11:43:19.207Z,3.60
2022-11-19T11:45:53.792Z,3.60
2022-11-19T11:48:23.920Z,3.50
2022-11-19T11:50:58.744Z,3.50
2022-11-19T11:53:33.624Z,3.50
2022-11-19T11:56:16.632Z,3.50
2022-11-19T11:58:51.759Z,3.60
2022-11-19T12:01:26.601Z,3.60
2022-11-19T12:03:56.358Z,3.60
2022-11-19T12:06:33.588Z,3.60
2022-11-19T12:09:09.286Z,3.70
2022-11-19T12:12:02.846Z,3.60
2022-11-19T12:14:33.910Z,3.60
2022-11-19T12:17:33.795Z,3.60
2022-11-19T12:20:19.353Z,3.60
2022-11-19T12:23:26.647Z,3.60
2022-11-19T12:26:13.015Z,3.60
2022-11-19T12:29:06.741Z,3.60
2022-11-19T12:31:53.244Z,3.60
2022-11-19T12:34:50.843Z,3.50
2022-11-19T12:37:37.040Z,3.60
2022-11-19T12:40:31.116Z,3.60
2022-11-19T12:43:14.681Z,3.60
2022-11-19T12:45:53.844Z,3.60
2022-11-19T12:49:01.340Z,3.60
2022-11-19T12:51:47.753Z,3.60
2022-11-19T12:54:34.614Z,3.60
2022-11-19T12:57:31.668Z,3.60
2022-11-19T13:00:13.275Z,3.60
2022-11-19T13:03:05.747Z,3.70
2022-11-19T13:05:45.075Z,3.70
2022-11-19T13:08:25.868Z,3.70
2022-11-19T13:11:00.323Z,3.70
2022-11-19T13:13:36.874Z,3.70
2022-11-19T13:16:11.312Z,3.70
2022-11-19T13:18:50.713Z,3.70
2022-11-19T13:21:41.733Z,3.70
2022-11-19T13:24:20.338Z,3.70
2022-11-19T13:26:55.691Z,3.70
2022-11-19T13:29:35.169Z,3.70
2022-11-19T13:32:18.812Z,3.70
2022-11-19T13:34:59.352Z,3.70
2022-11-19T13:37:47.099Z,3.70
2022-11-19T13:40:23.260Z,3.80
2022-11-19T13:43:32.708Z,3.70
2022-11-19T13:46:09.606Z,3.70
2022-11-19T13:48:49.754Z,3.60
2022-11-19T13:51:28.297Z,3.60
2022-11-19T13:54:05.798Z,3.60
2022-11-19T13:56:50.130Z,3.50
2022-11-19T13:59:38.717Z,3.60
2022-11-19T14:02:43.124Z,3.60
2022-11-19T14:05:41.694Z,3.60
2022-11-19T14:08:53.064Z,3.60
2022-11-19T14:11:55.800Z,3.60
2022-11-19T14:14:59.134Z,3.50
2022-11-19T14:17:59.767Z,3.50
2022-11-19T14:20:55.009Z,3.50
2022-11-19T14:24:08.867Z,3.50
2022-11-19T14:27:14.665Z,3.50
2022-11-19T14:30:08.780Z,3.40
2022-11-19T14:32:45.409Z,3.50
2022-11-19T14:35:30.727Z,3.50
2022-11-19T14:38:12.137Z,3.50
2022-11-19T14:40:47.943Z,3.40
2022-11-19T14:43:44.492Z,3.40
2022-11-19T14:46:36.833Z,3.40
2022-11-19T14:49:16.945Z,3.30
2022-11-19T14:51:58.887Z,3.30
2022-11-19T14:54:33.545Z,3.30
2022-11-19T14:57:25.333Z,3.30
2022-11-19T14:59:56.905Z,3.30
2022-11-19T15:02:37.770Z,3.40
2022-11-19T15:05:15.978Z,3.40
2022-11-19T15:07:56.451Z,3.40
2022-11-19T15:10:33.133Z,3.40
2022-11-19T15:13:33.836Z,3.40
2022-11-19T15:16:13.399Z,3.40
2022-11-19T15:19:30.823Z,3.30
2022-11-19T15:22:22.768Z,3.30
2022-11-19T15:25:15.055Z,3.30
2022-11-19T15:28:06.285Z,3.30
2022-11-19T15:30:57.966Z,3.30
2022-11-19T15:33:55.779Z,3.30
2022-11-19T15:36:42.929Z,3.30
2022-11-19T15:39:16.846Z,3.30
2022-11-19T15:42:06.994Z,3.30
2022-11-19T15:44:42.390Z,3.30
2022-11-19T15:47:22.807Z,3.30
2022-11-19T15:49:54.253Z,3.30
2022-11-19T15:52:33.925Z,3.30
2022-11-19T15:55:27.183Z,3.30
2022-11-19T15:58:16.976Z,3.30
2022-11-19T16:00:49.417Z,3.30
2022-11-19T16:03:25.983Z,3.30
2022-11-19T16:06:04.492Z,3.30
2022-11-19T16:08:40.917Z,3.30
2022-11-19T16:11:26.770Z,3.20
2022-11-19T16:14:20.015Z,3.30
2022-11-19T16:17:10.652Z,3.30
2022-11-19T16:19:45.827Z,3.30
2022-11-19T16:22:14.267Z,3.30
2022-11-19T16:25:06.878Z,3.30
2022-11-19T16:27:35.283Z,3.30
2022-11-19T16:30:10.929Z,3.30
2022-11-19T16:32:40.538Z,3.20
2022-11-19T16:35:18.828Z,3.20
2022-11-19T16:37:48.217Z,3.20
2022-11-19T16:40:25.015Z,3.20
2022-11-19T16:42:55.737Z,3.20
2022-11-19T16:45:32.799Z,3.20
2022-11-19T16:48:03.571Z,3.30
2022-11-19T16:50:45.349Z,3.20
2022-11-19T16:53:46.021Z,3.20
2022-11-19T16:56:20.849Z,3.20
2022-11-19T16:58:57.279Z,3.10
2022-11-19T17:01:32.117Z,3.10
2022-11-19T17:04:07.036Z,3.10
2022-11-19T17:06:44.859Z,3.10
2022-11-19T17:09:32.363Z,3.10
2022-11-19T17:12:24.844Z,3.10
2022-11-19T17:14:56.287Z,3.10
2022-11-19T17:17:44.102Z,3.10
2022-11-19T17:20:59.873Z,3.10
2022-11-19T17:23:37.854Z,3.10
2022-11-19T17:26:08.310Z,3.00
2022-11-19T17:28:48.226Z,3.00
2022-11-19T17:31:19.365Z,3.00
2022-11-19T17:34:02.040Z,3.10
2022-11-19T17:36:30.740Z,3.10
2022-11-19T17:39:07.111Z,3.10
2022-11-19T17:41:52.944Z,3.10
2022-11-19T17:44:40.960Z,3.10
2022-11-19T17:47:24.807Z,3.00
2022-11-19T17:49:59.937Z,3.00
2022-11-19T17:52:30.110Z,3.10
2022-11-19T17:55:18.054Z,3.10
2022-11-19T17:57:53.053Z,3.10
2022-11-19T18:00:27.863Z,3.10
2022-11-19T18:03:01.724Z,3.10
2022-11-19T18:05:41.944Z,3.10
2022-11-19T18:08:16.916Z,3.10
2022-11-19T18:10:49.632Z,3.10
2022-11-19T18:13:28.090Z,3.10
2022-11-19T18:15:56.510Z,3.10
2022-11-19T18:18:31.101Z,3.10
2022-11-19T18:21:02.268Z,3.10
2022-11-19T18:23:37.122Z,3.10
2022-11-19T18:26:07.529Z,3.10
2022-11-19T18:28:44.931Z,3.10
2022-11-19T18:31:19.120Z,3.10
2022-11-19T18:33:54.960Z,3.10
2022-11-19T18:36:23.978Z,3.10
2022-11-19T18:38:59.968Z,3.20
2022-11-19T18:41:30.150Z,3.20
2022-11-19T18:44:21.990Z,3.20
2022-11-19T18:46:50.365Z,3.20
2022-11-19T18:49:24.945Z,3.20
2022-11-19T18:51:53.680Z,3.20
2022-11-19T18:54:28.988Z,3.20
2022-11-19T18:57:05.218Z,3.20
2022-11-19T18:59:40.158Z,3.20
2022-11-19T19:02:09.795Z,3.20
2022-11-19T19:04:49.671Z,3.20
2022-11-19T19:07:19.386Z,3.20
2022-11-19T19:09:54.168Z,3.20
2022-11-19T19:12:23.753Z,3.20
2022-11-19T19:14:59.148Z,3.30
2022-11-19T19:17:27.746Z,3.30
2022-11-19T19:20:02.003Z,3.30
2022-11-19T19:22:30.572Z,3.30
2022-11-19T19:25:05.040Z,3.30
2022-11-19T19:27:35.049Z,3.30
2022-11-19T19:30:10.146Z,3.30
2022-11-19T19:32:38.316Z,3.30
2022-11-19T19:35:13.978Z,3.30
2022-11-19T19:37:42.495Z,3.30
2022-11-19T19:40:18.936Z,3.30
2022-11-19T19:42:48.531Z,3.30
2022-11-19T19:45:23.059Z,3.30
2022-11-19T19:47:51.372Z,3.20
2022-11-19T19:50:25.975Z,3.30
2022-11-19T19:52:54.695Z,3.30
2022-11-19T19:55:29.059Z,3.30
2022-11-19T19:58:07.519Z,3.30
2022-11-19T20:00:42.176Z,3.30
2022-11-19T20:03:15.900Z,3.30
2022-11-19T20:05:57.029Z,3.30
2022-11-19T20:08:25.876Z,3.30
2022-11-19T20:11:01.218Z,3.30
2022-11-19T20:13:32.270Z,3.30
2022-11-19T20:16:17.650Z,3.30
2022-11-19T20:18:47.778Z,3.40
2022-11-19T20:21:25.162Z,3.40
2022-11-19T20:23:53.592Z,3.40
2022-11-19T20:26:30.054Z,3.30
2022-11-19T20:29:01.577Z,3.30
2022-11-19T20:31:38.051Z,3.30
2022-11-19T20:34:07.425Z,3.30
2022-11-19T20:36:43.079Z,3.20
2022-11-19T20:39:11.267Z,3.20
2022-11-19T20:42:03.233Z,3.20
2022-11-19T20:44:33.356Z,3.10
2022-11-19T20:47:10.091Z,3.10
2022-11-19T20:49:39.592Z,3.10
2022-11-19T20:52:15.127Z,3.10
2022-11-19T20:54:43.402Z,3.20
2022-11-19T20:57:18.088Z,3.20
2022-11-19T20:59:47.807Z,3.20
2022-11-19T21:02:23.244Z,3.20
2022-11-19T21:04:51.918Z,3.20
2022-11-19T21:07:27.319Z,3.20
2022-11-19T21:09:55.545Z,3.20
2022-11-19T21:12:30.284Z,3.10
2022-11-19T21:15:00.139Z,3.10
2022-11-19T21:17:35.041Z,3.00
2022-11-19T21:20:03.265Z,3.00
2022-11-19T21:22:38.299Z,3.00
2022-11-19T21:25:12.336Z,3.00
2022-11-19T21:27:47.094Z,3.00
2022-11-19T21:30:19.583Z,3.00
2022-11-19T21:32:55.135Z,3.00
2022-11-19T21:35:23.364Z,3.00
2022-11-19T21:37:58.134Z,3.00
2022-11-19T21:40:26.766Z,3.00
2022-11-19T21:43:02.242Z,3.10
2022-11-19T21:45:31.986Z,3.00
2022-11-19T21:48:07.136Z,3.00
2022-11-19T21:50:36.084Z,3.00
2022-11-19T21:53:11.144Z,3.00
2022-11-19T21:55:39.738Z,3.10
2022-11-19T21:58:15.315Z,3.10
2022-11-19T22:00:47.090Z,3.10
2022-11-19T22:03:22.138Z,3.10
2022-11-19T22:05:59.798Z,3.10
2022-11-19T22:08:37.191Z,3.20
2022-11-19T22:11:33.267Z,3.20
2022-11-19T22:14:03.795Z,3.20
2022-11-19T22:16:43.305Z,3.10
2022-11-19T22:19:13.030Z,3.20
2022-11-19T22:21:48.296Z,3.20
2022-11-19T22:24:17.042Z,3.20
2022-11-19T22:26:52.128Z,3.20
2022-11-19T22:29:20.684Z,3.20
2022-11-19T22:31:57.133Z,3.20
2022-11-19T22:34:25.407Z,3.20
2022-11-19T22:37:00.318Z,3.20
2022-11-19T22:39:28.489Z,3.20
2022-11-19T22:42:03.137Z,3.20
2022-11-19T22:44:31.599Z,3.20
2022-11-19T22:47:08.111Z,3.20
2022-11-19T22:49:36.458Z,3.20
2022-11-19T22:52:11.189Z,3.20
2022-11-19T22:54:41.776Z,3.10
2022-11-19T22:57:30.150Z,3.10
2022-11-19T22:59:58.489Z,3.10
2022-11-19T23:02:35.186Z,3.10
2022-11-19T23:05:03.537Z,3.10
2022-11-19T23:07:40.235Z,3.20
2022-11-19T23:10:09.474Z,3.20
2022-11-19T23:13:02.145Z,3.20
2022-11-19T23:15:30.489Z,3.20
2022-11-19T23:18:07.334Z,3.20
2022-11-19T23:20:35.772Z,3.20
2022-11-19T23:23:10.177Z,3.20
2022-11-19T23:25:38.408Z,3.20
2022-11-19T23:28:13.360Z,3.20
2022-11-19T23:30:41.817Z,3.20
2022-11-19T23:33:18.363Z,3.20
2022-11-19T23:35:47.217Z,3.20
2022-11-19T23:38:22.188Z,3.30
2022-11-19T23:40:59.109Z,3.30
2022-11-19T23:43:34.388Z,3.30
2022-11-19T23:46:06.860Z,3.30
2022-11-19T23:48:44.206Z,3.30
2022-11-19T23:51:14.561Z,3.30
2022-11-19T23:53:50.222Z,3.30
2022-11-19T23:56:20.271Z,3.30
2022-11-19T23:59:08.178Z,3.30
